TFM - Tactical Decision Aid (Experimental) INFO Settings
ID: Runway Winds: CIG/VIS Threshold: METAR Board: Map:

KHKS - Jackson/Hawkins Fld

Updated at: 1747 UTC 21 Oct 2017
Latest TAF at: 1720 UTC 21 Oct 2017

TAF Board

Time1653Z21/18Z21/19Z21/20Z21/21Z21/22Z21/23Z22/00Z22/01Z22/02Z22/03Z22/04Z22/05Z22/06Z
TypeOBSPRVLPRVLPRVLPRVLPRVLPRVLPRVLPRVLPRVLPRVLPRVLPRVLPRVL
VIS10>6>6>6>6>6>6>6>6>6>6>6>6>6
CIG--25025025025025025090909090909090
CoverCLRBKNBKNBKNBKNBKNBKNBKNBKNBKNBKNBKNBKNBKN
FltCatVFRVFRVFRVFRVFRVFRVFRVFRVFRVFRVFRVFRVFRVFR
WX----------------------------
WDir120140140140140140140140140140140140140140
WSpd121010101010108888888
WGst--212121212121--------------
TAF
KHKS 211720Z 2118/2218 14010G21KT P6SM SCT060 BKN250
  FM220000 14008KT P6SM BKN090
  FM221000 15009KT P6SM BKN025
  FM221200 14008KT P6SM VCTS BKN015CB


METAR Board

Time21/06Z 21/07Z 21/08Z 21/09Z 21/10Z 21/11Z 21/12Z 21/13Z 21/14Z 21/15Z 21/16Z 21/17Z
VIS10 10 10 10 10 10 10 10 10 10 10 10
CIG-- -- -- -- -- -- -- -- -- -- -- --
CoverCLRCLRCLRCLRCLRFEWCLRCLRCLRCLRFEWCLR
FltCatVFRVFRVFRVFRVFRVFRVFRVFRVFRVFRVFRVFR
WX------------------------
WDir140120130130120110110110130140130120
WSpd6 8 8 6 6 4 5 5 6 10 12 12
WGst-- -- -- -- -- -- -- -- -- -- -- --
METAR
KHKS 210553Z AUTO 14006KT 10SM CLR 19/17 A3009 RMK AO2 SLP183 T01940172 10233 20194 402720122 56004
KHKS 210653Z AUTO 12008KT 10SM CLR 20/17 A3008 RMK AO2 SLP179 T02000167
KHKS 210753Z AUTO 13008KT 10SM CLR 20/16 A3008 RMK AO2 SLP177 T02000161
KHKS 210853Z AUTO 13006KT 10SM CLR 19/16 A3008 RMK AO2 SLP176 T01890161 56006
KHKS 210953Z AUTO 12006KT 10SM CLR 19/16 A3008 RMK AO2 SLP178 T01890161
KHKS 211053Z AUTO 11004KT 10SM FEW050 18/16 A3009 RMK AO2 SLP182 T01830156
KHKS 211153Z 11005KT 10SM CLR 18/16 A3010 RMK AO2 SLP184 T01830156 10200 20178 53007
KHKS 211253Z 11005KT 10SM CLR 19/15 A3011 RMK AO2 SLP188 T01890150
KHKS 211353Z 13006KT 10SM CLR 21/16 A3012 RMK AO2 SLP191 T02060156
KHKS 211453Z 14010KT 10SM CLR 23/19 A3013 RMK AO2 SLP194 T02330189 51009
KHKS 211553Z 13012KT 10SM FEW095 26/19 A3013 RMK AO2 SLP194 T02560194
KHKS 211653Z 12012KT 10SM CLR 26/21 A3011 RMK AO2 SLP189 T02610206

TAF/METAR Board Legend

Potential Impact
  None Marginal Slight Moderate High
Visibility (sm) >5 3≤X≤5 2≤X<3 0.5≤X<2 <0.5
Ceiling (100 ft) >30 10≤X≤30 6≤X<10 2≤X<6 <2
Wind Speed (kt) <10 10≤X<20 20≤X<30 ≥30
Wind Gust (kt) <15 15≤X<25 25≤X<35 ≥35
Weather No Wx Reported VCTS -TS,-FZRA TS,FZRA +TS,+FZRA